createdAt,value
2023-02-01T00:02:41.503Z,98781.55
2023-02-01T00:05:43.196Z,98766.02
2023-02-01T00:08:44.815Z,98766.19
2023-02-01T00:11:46.450Z,98767.39
2023-02-01T00:14:48.096Z,98762.05
2023-02-01T00:17:54.705Z,98762.05
2023-02-01T00:20:56.364Z,98764.80
2023-02-01T00:23:58.332Z,98765.09
2023-02-01T00:27:00.004Z,98770.67
2023-02-01T00:30:01.666Z,98761.16
2023-02-01T00:33:03.337Z,98757.52
2023-02-01T00:36:07.323Z,98752.82
2023-02-01T00:39:09.448Z,98756.67
2023-02-01T00:42:11.043Z,98769.98
2023-02-01T00:45:12.649Z,98757.70
2023-02-01T00:48:14.291Z,98748.65
2023-02-01T00:51:18.820Z,98753.36
2023-02-01T00:54:20.518Z,98751.08
2023-02-01T00:57:22.059Z,98756.96
2023-02-01T01:00:23.924Z,98750.70
2023-02-01T01:03:25.781Z,98746.29
2023-02-01T01:06:29.054Z,98738.48
2023-02-01T01:09:30.688Z,98739.58
2023-02-01T01:12:32.211Z,98733.38
2023-02-01T01:15:38.506Z,98730.72
2023-02-01T01:18:40.669Z,98725.53
2023-02-01T01:21:42.297Z,98721.52
2023-02-01T01:24:43.906Z,98716.53
2023-02-01T01:27:45.577Z,98717.66
2023-02-01T01:30:47.322Z,98728.67
2023-02-01T01:33:51.394Z,98723.96
2023-02-01T01:36:53.035Z,98707.00
2023-02-01T01:39:54.578Z,98708.44
2023-02-01T01:42:57.154Z,98707.24
2023-02-01T01:45:58.741Z,98709.61
2023-02-01T01:49:03.121Z,98677.08
2023-02-01T01:52:05.051Z,98684.95
2023-02-01T01:55:06.949Z,98697.48
2023-02-01T01:58:14.526Z,98697.64
2023-02-01T02:01:16.326Z,98710.17
2023-02-01T02:04:17.972Z,98722.34
2023-02-01T02:07:27.733Z,98733.83
2023-02-01T02:10:29.765Z,98750.66
2023-02-01T02:13:38.156Z,98768.63
2023-02-01T02:17:05.604Z,98765.11
2023-02-01T02:20:44.775Z,98769.16
2023-02-01T02:24:00.321Z,98775.58
2023-02-01T02:27:29.160Z,98778.48
2023-02-01T02:30:45.914Z,98780.95
2023-02-01T02:34:03.361Z,98784.27
2023-02-01T02:37:11.185Z,98787.41
2023-02-01T02:40:21.984Z,98790.35
2023-02-01T02:43:31.679Z,98794.88
2023-02-01T02:46:38.437Z,98799.77
2023-02-01T02:49:50.995Z,98795.30
2023-02-01T02:53:03.054Z,98802.54
2023-02-01T02:56:06.895Z,98805.34
2023-02-01T02:59:10.043Z,98805.59
2023-02-01T03:02:12.949Z,98802.60
2023-02-01T03:08:17.453Z,98811.52
2023-02-01T03:11:19.021Z,98817.50
2023-02-01T03:14:22.416Z,98813.45
2023-02-01T03:17:30.355Z,98809.73
2023-02-01T03:20:32.964Z,98814.38
2023-02-01T03:23:36.385Z,98809.98
2023-02-01T03:26:40.922Z,98818.07
2023-02-01T03:29:50.047Z,98824.36
2023-02-01T03:32:55.635Z,98834.23
2023-02-01T03:36:03.736Z,98842.11
2023-02-01T03:39:10.969Z,98845.56
2023-02-01T03:42:20.521Z,98851.58
2023-02-01T03:45:29.929Z,98854.08
2023-02-01T03:48:32.449Z,98847.13
2023-02-01T03:51:34.901Z,98853.06
2023-02-01T03:54:37.806Z,98854.41
2023-02-01T03:57:44.393Z,98853.48
2023-02-01T04:00:51.079Z,98856.92
2023-02-01T04:03:52.746Z,98857.80
2023-02-01T04:06:54.184Z,98863.85
2023-02-01T04:09:56.013Z,98859.46
2023-02-01T04:12:57.556Z,98854.89
2023-02-01T04:15:59.179Z,98849.17
2023-02-01T04:19:01.372Z,98845.27
2023-02-01T04:22:03.072Z,98850.30
2023-02-01T04:25:04.831Z,98850.85
2023-02-01T04:28:06.544Z,98854.11
2023-02-01T04:31:08.221Z,98852.65
2023-02-01T04:34:09.762Z,98852.88
2023-02-01T04:37:11.397Z,98855.80
2023-02-01T04:40:13.337Z,98857.08
2023-02-01T04:43:15.198Z,98864.27
2023-02-01T04:46:16.891Z,98867.15
2023-02-01T04:49:18.420Z,98873.59
2023-02-01T04:52:20.017Z,98878.02
2023-02-01T04:55:21.637Z,98881.40
2023-02-01T04:58:23.208Z,98875.94
2023-02-01T05:01:25.093Z,98877.95
2023-02-01T05:04:26.916Z,98879.89
2023-02-01T05:07:28.573Z,98880.45
2023-02-01T05:10:30.250Z,98872.10
2023-02-01T05:13:32.017Z,98875.11
2023-02-01T05:16:33.614Z,98876.98
2023-02-01T05:19:35.202Z,98884.02
2023-02-01T05:22:36.828Z,98885.52
2023-02-01T05:25:38.308Z,98881.73
2023-02-01T05:28:39.946Z,98870.46
2023-02-01T05:31:41.624Z,98869.75
2023-02-01T05:34:43.283Z,98871.77
2023-02-01T05:37:44.922Z,98873.25
2023-02-01T05:40:46.540Z,98876.15
2023-02-01T05:43:48.040Z,98877.48
2023-02-01T05:46:50.266Z,98878.81
2023-02-01T05:49:52.162Z,98877.42
2023-02-01T05:52:53.677Z,98881.17
2023-02-01T05:55:55.203Z,98879.98
2023-02-01T05:58:56.784Z,98874.36
2023-02-01T06:01:58.490Z,98874.20
2023-02-01T06:05:00.057Z,98873.91
2023-02-01T06:08:01.689Z,98872.22
2023-02-01T06:11:05.139Z,98871.75
2023-02-01T06:14:06.915Z,98872.80
2023-02-01T06:17:09.011Z,98871.73
2023-02-01T06:20:12.222Z,98874.27
2023-02-01T06:23:13.824Z,98872.92
2023-02-01T06:26:15.504Z,98874.80
2023-02-01T06:29:17.168Z,98874.04
2023-02-01T06:32:18.796Z,98881.55
2023-02-01T06:35:20.382Z,98886.92
2023-02-01T06:38:21.949Z,98885.36
2023-02-01T06:41:24.259Z,98886.23
2023-02-01T06:44:25.851Z,98887.01
2023-02-01T06:47:27.486Z,98886.26
2023-02-01T06:50:29.131Z,98889.91
2023-02-01T06:53:31.434Z,98885.89
2023-02-01T06:56:32.929Z,98884.90
2023-02-01T06:59:34.487Z,98886.81
2023-02-01T07:02:36.093Z,98887.61
2023-02-01T07:05:37.861Z,98885.23
2023-02-01T07:08:39.520Z,98889.30
2023-02-01T07:11:41.220Z,98885.20
2023-02-01T07:14:42.871Z,98885.15
2023-02-01T07:17:44.416Z,98884.20
2023-02-01T07:20:51.313Z,98886.83
2023-02-01T07:23:52.893Z,98891.01
2023-02-01T07:26:54.692Z,98893.99
2023-02-01T07:29:56.211Z,98888.02
2023-02-01T07:32:58.117Z,98878.98
2023-02-01T07:36:02.228Z,98878.76
2023-02-01T07:39:04.917Z,98874.44
2023-02-01T07:42:06.668Z,98876.20
2023-02-01T07:45:20.824Z,98876.49
2023-02-01T07:48:24.434Z,98870.88
2023-02-01T07:51:26.164Z,98872.11
2023-02-01T07:54:27.940Z,98868.38
2023-02-01T07:57:29.523Z,98866.49
2023-02-01T08:00:31.271Z,98864.92
2023-02-01T08:03:32.784Z,98873.10
2023-02-01T08:06:34.833Z,98867.93
2023-02-01T08:09:36.559Z,98860.11
2023-02-01T08:12:38.383Z,98855.99
2023-02-01T08:15:39.993Z,98861.14
2023-02-01T08:19:00.197Z,98856.23
2023-02-01T08:22:20.649Z,98854.79
2023-02-01T08:25:22.684Z,98853.08
2023-02-01T08:28:24.560Z,98855.98
2023-02-01T08:31:28.199Z,98850.91
2023-02-01T08:34:30.207Z,98853.45
2023-02-01T08:37:32.513Z,98848.14
2023-02-01T08:40:34.279Z,98850.25
2023-02-01T08:43:36.131Z,98842.52
2023-02-01T08:46:37.779Z,98840.27
2023-02-01T08:49:39.240Z,98852.58
2023-02-01T08:52:40.976Z,98842.73
2023-02-01T08:55:42.617Z,98851.63
2023-02-01T08:58:44.551Z,98857.91
2023-02-01T09:01:46.184Z,98857.48
2023-02-01T09:04:48.095Z,98853.41
2023-02-01T09:07:49.701Z,98853.20
2023-02-01T09:10:51.236Z,98852.02
2023-02-01T09:13:52.773Z,98851.80
2023-02-01T09:16:54.473Z,98849.25
2023-02-01T09:19:56.078Z,98847.70
2023-02-01T09:22:58.170Z,98849.67
2023-02-01T09:26:04.151Z,98839.13
2023-02-01T09:29:06.376Z,98841.98
2023-02-01T09:32:08.238Z,98837.10
2023-02-01T09:35:10.058Z,98829.08
2023-02-01T09:38:11.838Z,98833.42
2023-02-01T09:41:50.906Z,98831.71
2023-02-01T09:45:08.196Z,98828.58
2023-02-01T09:48:18.778Z,98827.17
2023-02-01T09:51:24.906Z,98828.26
2023-02-01T09:54:30.603Z,98826.41
2023-02-01T09:57:43.101Z,98821.98
2023-02-01T10:01:04.656Z,98819.95
2023-02-01T10:04:09.617Z,98811.73
2023-02-01T10:07:37.682Z,98802.91
2023-02-01T10:10:49.098Z,98803.84
2023-02-01T10:14:03.613Z,98796.48
2023-02-01T10:17:44.465Z,98786.73
2023-02-01T10:21:09.662Z,98792.95
2023-02-01T10:24:33.808Z,98784.52
2023-02-01T10:27:39.396Z,98781.96
2023-02-01T10:30:45.414Z,98789.55
2023-02-01T10:33:50.423Z,98789.52
2023-02-01T10:37:20.733Z,98784.90
2023-02-01T10:40:25.772Z,98780.59
2023-02-01T10:43:27.622Z,98773.41
2023-02-01T10:46:29.188Z,98765.46
2023-02-01T10:49:37.856Z,98774.28
2023-02-01T10:52:47.603Z,98770.86
2023-02-01T10:55:51.228Z,98767.59
2023-02-01T10:59:01.710Z,98772.94
2023-02-01T11:02:35.635Z,98772.86
2023-02-01T11:05:47.490Z,98764.96
2023-02-01T11:08:49.817Z,98766.38
2023-02-01T11:11:51.320Z,98757.84
2023-02-01T11:14:59.882Z,98755.39
2023-02-01T11:18:16.444Z,98745.01
2023-02-01T11:21:18.174Z,98744.55
2023-02-01T11:24:27.094Z,98742.70
2023-02-01T11:27:28.986Z,98734.12
2023-02-01T11:30:38.016Z,98729.91
2023-02-01T11:33:47.317Z,98728.89
2023-02-01T11:36:50.188Z,98725.01
2023-02-01T11:39:59.231Z,98722.06
2023-02-01T11:43:08.890Z,98721.52
2023-02-01T11:46:18.987Z,98720.59
2023-02-01T11:49:28.239Z,98726.38
2023-02-01T11:52:55.718Z,98723.89
2023-02-01T11:56:21.124Z,98714.88
2023-02-01T11:59:31.654Z,98713.54
2023-02-01T12:02:58.076Z,98714.59
2023-02-01T12:06:23.313Z,98717.56
2023-02-01T12:09:51.938Z,98717.70
2023-02-01T12:13:02.626Z,98722.39
2023-02-01T12:16:07.555Z,98717.70
2023-02-01T12:19:28.732Z,98719.09
2023-02-01T12:22:50.874Z,98711.94
2023-02-01T12:26:18.626Z,98716.30
2023-02-01T12:29:55.649Z,98708.96
2023-02-01T12:33:19.301Z,98709.70
2023-02-01T12:36:44.189Z,98714.10
2023-02-01T12:40:07.201Z,98707.41
2023-02-01T12:43:13.658Z,98700.55
2023-02-01T12:46:27.007Z,98701.66
2023-02-01T12:49:35.886Z,98698.90
2023-02-01T12:52:48.266Z,98686.83
2023-02-01T12:55:55.667Z,98687.16
2023-02-01T12:58:59.959Z,98677.83
2023-02-01T13:02:11.201Z,98679.27
2023-02-01T13:05:28.849Z,98687.73
2023-02-01T13:08:48.607Z,98688.14
2023-02-01T13:11:53.161Z,98684.64
2023-02-01T13:14:58.267Z,98671.25
2023-02-01T13:18:03.198Z,98686.02
2023-02-01T13:21:09.952Z,98682.59
2023-02-01T13:24:27.844Z,98680.36
2023-02-01T13:27:30.745Z,98676.95
2023-02-01T13:31:03.808Z,98678.48
2023-02-01T13:34:30.775Z,98670.05
2023-02-01T13:38:05.754Z,98664.88
2023-02-01T13:41:29.871Z,98660.56
2023-02-01T13:44:35.611Z,98657.98
2023-02-01T13:47:44.464Z,98658.00
2023-02-01T13:50:52.404Z,98653.23
2023-02-01T13:53:54.065Z,98654.50
2023-02-01T13:56:55.553Z,98654.31
2023-02-01T14:00:07.883Z,98652.29
2023-02-01T14:03:13.063Z,98652.65
2023-02-01T14:06:27.222Z,98652.73
2023-02-01T14:09:35.004Z,98651.61
2023-02-01T14:12:47.923Z,98650.05
2023-02-01T14:16:05.192Z,98652.65
2023-02-01T14:19:28.087Z,98656.11
2023-02-01T14:22:36.344Z,98650.11
2023-02-01T14:25:38.643Z,98636.68
2023-02-01T14:28:55.521Z,98643.58
2023-02-01T14:32:04.998Z,98647.13
2023-02-01T14:35:13.487Z,98649.67
2023-02-01T14:38:15.245Z,98642.94
2023-02-01T14:41:25.375Z,98645.30
2023-02-01T14:44:29.969Z,98639.05
2023-02-01T14:47:32.609Z,98629.59
2023-02-01T14:50:34.645Z,98631.88
2023-02-01T14:53:36.441Z,98625.17
2023-02-01T14:56:37.959Z,98625.27
2023-02-01T14:59:41.220Z,98625.46
2023-02-01T15:02:44.935Z,98623.74
2023-02-01T15:05:46.545Z,98627.84
2023-02-01T15:08:48.284Z,98624.96
2023-02-01T15:12:11.761Z,98625.48
2023-02-01T15:15:15.215Z,98624.70
2023-02-01T15:18:18.095Z,98626.08
2023-02-01T15:21:28.073Z,98638.85
2023-02-01T15:24:34.649Z,98636.00
2023-02-01T15:27:37.354Z,98641.21
2023-02-01T15:30:39.098Z,98641.98
2023-02-01T15:33:40.646Z,98647.98
2023-02-01T15:36:56.624Z,98644.85
2023-02-01T15:40:10.930Z,98655.05
2023-02-01T15:43:13.124Z,98647.84
2023-02-01T15:46:19.850Z,98654.84
2023-02-01T15:49:37.426Z,98654.48
2023-02-01T15:52:41.022Z,98658.23
2023-02-01T15:55:43.601Z,98664.71
2023-02-01T15:58:47.325Z,98660.27
2023-02-01T16:01:49.467Z,98666.67
2023-02-01T16:04:51.252Z,98672.73
2023-02-01T16:08:05.319Z,98672.44
2023-02-01T16:11:10.187Z,98670.34
2023-02-01T16:14:11.854Z,98674.00
2023-02-01T16:17:13.526Z,98672.92
2023-02-01T16:20:15.127Z,98678.83
2023-02-01T16:23:17.069Z,98678.44
2023-02-01T16:26:19.916Z,98681.20
2023-02-01T16:29:21.461Z,98684.73
2023-02-01T16:32:23.397Z,98687.85
2023-02-01T16:35:30.101Z,98698.09
2023-02-01T16:38:32.424Z,98701.03
2023-02-01T16:41:34.117Z,98702.91
2023-02-01T16:44:35.698Z,98707.05
2023-02-01T16:47:38.680Z,98708.08
2023-02-01T16:50:40.282Z,98714.16
2023-02-01T16:53:53.447Z,98711.72
2023-02-01T16:56:56.106Z,98723.46
2023-02-01T16:59:57.580Z,98727.75
2023-02-01T17:02:59.131Z,98726.59
2023-02-01T17:06:00.795Z,98729.54
2023-02-01T17:09:02.312Z,98732.43
2023-02-01T17:12:05.259Z,98736.64
2023-02-01T17:15:07.230Z,98736.43
2023-02-01T17:18:11.766Z,98741.98
2023-02-01T17:21:13.419Z,98743.33
2023-02-01T17:24:17.336Z,98738.16
2023-02-01T17:27:19.043Z,98733.86
2023-02-01T17:30:20.509Z,98732.36
2023-02-01T17:33:29.053Z,98735.02
2023-02-01T17:36:37.925Z,98739.27
2023-02-01T17:39:39.611Z,98739.30
2023-02-01T17:42:41.067Z,98748.14
2023-02-01T17:45:47.234Z,98745.79
2023-02-01T17:48:48.819Z,98743.42
2023-02-01T17:51:50.402Z,98744.46
2023-02-01T17:54:52.031Z,98745.39
2023-02-01T17:57:53.742Z,98743.73
2023-02-01T18:00:55.185Z,98737.77
2023-02-01T18:03:57.076Z,98736.55
2023-02-01T18:06:58.777Z,98741.56
2023-02-01T18:10:00.440Z,98740.16
2023-02-01T18:13:02.346Z,98733.54
2023-02-01T18:16:04.356Z,98729.52
2023-02-01T18:19:06.188Z,98727.73
2023-02-01T18:22:15.525Z,98729.13
2023-02-01T18:25:19.765Z,98731.85
2023-02-01T18:28:21.418Z,98730.77
2023-02-01T18:31:26.052Z,98731.27
2023-02-01T18:34:27.768Z,98738.39
2023-02-01T18:37:29.529Z,98743.78
2023-02-01T18:40:36.496Z,98743.38
2023-02-01T18:43:38.001Z,98743.16
2023-02-01T18:46:39.546Z,98750.02
2023-02-01T18:49:41.115Z,98738.34
2023-02-01T18:52:42.752Z,98735.55
2023-02-01T18:55:44.375Z,98722.34
2023-02-01T18:58:46.531Z,98728.75
2023-02-01T19:01:48.273Z,98727.08
2023-02-01T19:04:49.937Z,98720.23
2023-02-01T19:07:51.766Z,98715.62
2023-02-01T19:10:54.375Z,98724.55
2023-02-01T19:13:56.044Z,98726.88
2023-02-01T19:16:57.656Z,98717.98
2023-02-01T19:19:59.319Z,98706.31
2023-02-01T19:23:00.968Z,98706.09
2023-02-01T19:26:02.747Z,98703.60
2023-02-01T19:29:04.416Z,98704.55
2023-02-01T19:32:06.538Z,98703.95
2023-02-01T19:35:09.586Z,98702.41
2023-02-01T19:38:30.207Z,98695.39
2023-02-01T19:41:31.872Z,98689.08
2023-02-01T19:44:33.846Z,98675.13
2023-02-01T19:47:35.839Z,98666.22
2023-02-01T19:50:37.483Z,98667.84
2023-02-01T19:53:39.073Z,98667.17
2023-02-01T19:56:41.011Z,98670.48
2023-02-01T19:59:42.715Z,98668.20
2023-02-01T20:02:43.369Z,98667.67
2023-02-01T20:05:45.225Z,98668.06
2023-02-01T20:08:48.303Z,98668.54
2023-02-01T20:11:50.809Z,98672.23
2023-02-01T20:14:52.529Z,98668.27
2023-02-01T20:17:54.070Z,98659.67
2023-02-01T20:20:57.554Z,98656.01
2023-02-01T20:23:59.299Z,98653.10
2023-02-01T20:27:01.730Z,98648.44
2023-02-01T20:30:04.391Z,98646.27
2023-02-01T20:33:05.993Z,98644.47
2023-02-01T20:36:08.139Z,98639.52
2023-02-01T20:39:09.728Z,98624.36
2023-02-01T20:42:11.328Z,98625.84
2023-02-01T20:45:13.029Z,98623.59
2023-02-01T20:48:15.981Z,98623.73
2023-02-01T20:51:20.036Z,98626.25
2023-02-01T20:54:21.701Z,98620.06
2023-02-01T20:57:23.568Z,98617.94
2023-02-01T21:00:25.020Z,98615.91
2023-02-01T21:03:27.064Z,98619.49
2023-02-01T21:06:28.857Z,98616.34
2023-02-01T21:09:30.680Z,98615.25
2023-02-01T21:12:32.254Z,98613.70
2023-02-01T21:15:35.973Z,98608.61
2023-02-01T21:18:37.776Z,98608.62
2023-02-01T21:21:39.503Z,98608.75
2023-02-01T21:24:41.261Z,98604.02
2023-02-01T21:27:42.987Z,98599.04
2023-02-01T21:30:44.550Z,98596.72
2023-02-01T21:33:48.466Z,98591.39
2023-02-01T21:36:50.117Z,98590.95
2023-02-01T21:39:52.102Z,98584.63
2023-02-01T21:42:53.695Z,98585.23
2023-02-01T21:45:55.329Z,98580.65
2023-02-01T21:49:04.732Z,98576.83
2023-02-01T21:52:07.950Z,98572.95
2023-02-01T21:55:10.056Z,98564.42
2023-02-01T21:58:11.675Z,98561.44
2023-02-01T22:01:13.284Z,98563.23
2023-02-01T22:04:14.903Z,98559.52
2023-02-01T22:07:16.621Z,98554.57
2023-02-01T22:10:18.228Z,98551.91
2023-02-01T22:13:19.786Z,98554.66
2023-02-01T22:16:22.162Z,98558.04
2023-02-01T22:19:23.864Z,98558.89
2023-02-01T22:22:25.517Z,98556.41
2023-02-01T22:25:27.297Z,98555.98
2023-02-01T22:28:31.773Z,98554.14
2023-02-01T22:31:35.408Z,98548.66
2023-02-01T22:34:37.219Z,98543.39
2023-02-01T22:37:38.952Z,98540.16
2023-02-01T22:40:40.559Z,98535.57
2023-02-01T22:43:42.426Z,98532.69
2023-02-01T22:46:44.244Z,98531.16
2023-02-01T22:49:45.689Z,98528.85
2023-02-01T22:52:47.549Z,98524.80
2023-02-01T22:55:49.231Z,98519.73
2023-02-01T22:58:55.120Z,98517.82
2023-02-01T23:01:56.699Z,98513.93
2023-02-01T23:04:58.310Z,98515.40
2023-02-01T23:07:59.817Z,98511.91
2023-02-01T23:11:05.599Z,98509.98
2023-02-01T23:14:07.568Z,98504.76
2023-02-01T23:17:09.144Z,98500.40
2023-02-01T23:20:16.677Z,98494.34
2023-02-01T23:23:18.286Z,98491.36
2023-02-01T23:26:20.441Z,98493.95
2023-02-01T23:29:22.143Z,98492.64
2023-02-01T23:32:23.816Z,98488.13
2023-02-01T23:35:25.916Z,98486.77
2023-02-01T23:38:28.686Z,98479.75
2023-02-01T23:41:30.320Z,98474.40
2023-02-01T23:44:31.941Z,98467.26
2023-02-01T23:47:33.892Z,98464.79
2023-02-01T23:50:35.406Z,98465.11
2023-02-01T23:53:37.327Z,98467.91
2023-02-01T23:56:43.793Z,98466.16
2023-02-01T23:59:45.444Z,98461.74
